sensor_id;sensor_type;location;lat;lon;timestamp;P1;durP1;ratioP1;P2;durP2;ratioP2
37241;SDS011;23135;51.078;12.108;2023-01-28T00:01:10;10.23;;;5.32;;
37241;SDS011;23135;51.078;12.108;2023-01-28T00:03:37;11.23;;;5.13;;
37241;SDS011;23135;51.078;12.108;2023-01-28T00:06:04;12.35;;;5.15;;
37241;SDS011;23135;51.078;12.108;2023-01-28T00:08:32;13.27;;;5.95;;
37241;SDS011;23135;51.078;12.108;2023-01-28T00:10:58;6.93;;;4.95;;
37241;SDS011;23135;51.078;12.108;2023-01-28T00:13:25;11.10;;;5.53;;
37241;SDS011;23135;51.078;12.108;2023-01-28T00:15:58;12.65;;;4.30;;
37241;SDS011;23135;51.078;12.108;2023-01-28T00:18:26;7.55;;;4.55;;
37241;SDS011;23135;51.078;12.108;2023-01-28T00:21:11;6.43;;;3.40;;
37241;SDS011;23135;51.078;12.108;2023-01-28T00:23:38;7.35;;;3.08;;
37241;SDS011;23135;51.078;12.108;2023-01-28T00:26:06;8.68;;;3.95;;
37241;SDS011;23135;51.078;12.108;2023-01-28T00:28:35;19.65;;;4.90;;
37241;SDS011;23135;51.078;12.108;2023-01-28T00:31:10;12.02;;;4.50;;
37241;SDS011;23135;51.078;12.108;2023-01-28T00:33:40;8.75;;;5.05;;
37241;SDS011;23135;51.078;12.108;2023-01-28T00:36:05;9.93;;;4.88;;
37241;SDS011;23135;51.078;12.108;2023-01-28T00:38:32;5.88;;;3.70;;
37241;SDS011;23135;51.078;12.108;2023-01-28T00:41:06;4.82;;;3.10;;
37241;SDS011;23135;51.078;12.108;2023-01-28T00:43:39;9.30;;;3.58;;
37241;SDS011;23135;51.078;12.108;2023-01-28T00:46:08;16.13;;;4.18;;
37241;SDS011;23135;51.078;12.108;2023-01-28T00:48:34;7.88;;;4.57;;
37241;SDS011;23135;51.078;12.108;2023-01-28T00:51:01;9.85;;;3.78;;
37241;SDS011;23135;51.078;12.108;2023-01-28T00:53:27;10.20;;;3.75;;
37241;SDS011;23135;51.078;12.108;2023-01-28T00:55:53;7.88;;;3.78;;
37241;SDS011;23135;51.078;12.108;2023-01-28T00:58:19;12.15;;;4.60;;
37241;SDS011;23135;51.078;12.108;2023-01-28T01:00:45;6.80;;;2.88;;
37241;SDS011;23135;51.078;12.108;2023-01-28T01:03:11;8.25;;;3.65;;
37241;SDS011;23135;51.078;12.108;2023-01-28T01:05:37;4.25;;;2.55;;
37241;SDS011;23135;51.078;12.108;2023-01-28T01:08:02;3.22;;;2.20;;
37241;SDS011;23135;51.078;12.108;2023-01-28T01:10:28;5.55;;;2.75;;
37241;SDS011;23135;51.078;12.108;2023-01-28T01:12:54;5.30;;;1.42;;
37241;SDS011;23135;51.078;12.108;2023-01-28T01:15:22;5.82;;;1.50;;
37241;SDS011;23135;51.078;12.108;2023-01-28T01:17:48;9.45;;;1.67;;
37241;SDS011;23135;51.078;12.108;2023-01-28T01:20:15;5.22;;;1.02;;
37241;SDS011;23135;51.078;12.108;2023-01-28T01:22:46;2.10;;;0.95;;
37241;SDS011;23135;51.078;12.108;2023-01-28T01:25:12;3.90;;;1.55;;
37241;SDS011;23135;51.078;12.108;2023-01-28T01:27:39;3.63;;;2.05;;
37241;SDS011;23135;51.078;12.108;2023-01-28T01:30:05;2.15;;;1.25;;
37241;SDS011;23135;51.078;12.108;2023-01-28T01:32:32;5.35;;;1.20;;
37241;SDS011;23135;51.078;12.108;2023-01-28T01:35:01;9.63;;;0.80;;
37241;SDS011;23135;51.078;12.108;2023-01-28T01:37:30;4.68;;;0.80;;
37241;SDS011;23135;51.078;12.108;2023-01-28T01:39:56;2.33;;;0.77;;
37241;SDS011;23135;51.078;12.108;2023-01-28T01:42:21;2.45;;;0.98;;
37241;SDS011;23135;51.078;12.108;2023-01-28T01:44:57;8.07;;;1.33;;
37241;SDS011;23135;51.078;12.108;2023-01-28T01:47:31;3.15;;;1.10;;
37241;SDS011;23135;51.078;12.108;2023-01-28T01:50:05;10.10;;;1.20;;
37241;SDS011;23135;51.078;12.108;2023-01-28T01:52:36;4.90;;;1.05;;
37241;SDS011;23135;51.078;12.108;2023-01-28T01:55:04;2.03;;;1.15;;
37241;SDS011;23135;51.078;12.108;2023-01-28T01:57:34;7.57;;;1.38;;
37241;SDS011;23135;51.078;12.108;2023-01-28T02:00:00;1.55;;;0.82;;
37241;SDS011;23135;51.078;12.108;2023-01-28T02:02:35;7.63;;;3.45;;
37241;SDS011;23135;51.078;12.108;2023-01-28T02:05:13;8.93;;;1.77;;
37241;SDS011;23135;51.078;12.108;2023-01-28T02:07:41;3.22;;;1.23;;
37241;SDS011;23135;51.078;12.108;2023-01-28T02:10:09;5.03;;;0.93;;
37241;SDS011;23135;51.078;12.108;2023-01-28T02:12:38;8.27;;;1.20;;
37241;SDS011;23135;51.078;12.108;2023-01-28T02:15:08;9.13;;;2.28;;
37241;SDS011;23135;51.078;12.108;2023-01-28T02:17:45;3.42;;;1.20;;
37241;SDS011;23135;51.078;12.108;2023-01-28T02:20:18;4.80;;;1.13;;
37241;SDS011;23135;51.078;12.108;2023-01-28T02:22:58;6.35;;;0.75;;
37241;SDS011;23135;51.078;12.108;2023-01-28T02:28:52;6.97;;;2.00;;
37241;SDS011;23135;51.078;12.108;2023-01-28T02:31:31;5.30;;;0.47;;
37241;SDS011;23135;51.078;12.108;2023-01-28T02:36:38;4.65;;;1.02;;
37241;SDS011;23135;51.078;12.108;2023-01-28T02:39:24;6.45;;;1.85;;
37241;SDS011;23135;51.078;12.108;2023-01-28T02:42:07;3.70;;;1.08;;
37241;SDS011;23135;51.078;12.108;2023-01-28T02:44:38;3.72;;;1.08;;
37241;SDS011;23135;51.078;12.108;2023-01-28T02:47:09;8.35;;;1.65;;
37241;SDS011;23135;51.078;12.108;2023-01-28T02:49:53;12.50;;;1.08;;
37241;SDS011;23135;51.078;12.108;2023-01-28T02:58:37;6.72;;;0.75;;
37241;SDS011;23135;51.078;12.108;2023-01-28T03:04:00;4.50;;;0.90;;
37241;SDS011;23135;51.078;12.108;2023-01-28T03:06:51;8.15;;;0.82;;
37241;SDS011;23135;51.078;12.108;2023-01-28T03:09:21;4.60;;;0.77;;
37241;SDS011;23135;51.078;12.108;2023-01-28T03:12:06;3.00;;;0.80;;
37241;SDS011;23135;51.078;12.108;2023-01-28T03:15:02;2.77;;;1.50;;
37241;SDS011;23135;51.078;12.108;2023-01-28T03:18:06;1.52;;;0.47;;
37241;SDS011;23135;51.078;12.108;2023-01-28T03:21:03;6.15;;;1.58;;
37241;SDS011;23135;51.078;12.108;2023-01-28T03:23:53;1.75;;;0.52;;
37241;SDS011;23135;51.078;12.108;2023-01-28T03:26:56;5.22;;;2.03;;
37241;SDS011;23135;51.078;12.108;2023-01-28T03:29:53;4.60;;;0.75;;
37241;SDS011;23135;51.078;12.108;2023-01-28T03:32:39;6.55;;;1.45;;
37241;SDS011;23135;51.078;12.108;2023-01-28T03:35:25;3.72;;;1.15;;
37241;SDS011;23135;51.078;12.108;2023-01-28T03:38:13;2.72;;;1.02;;
37241;SDS011;23135;51.078;12.108;2023-01-28T03:40:55;2.42;;;0.50;;
37241;SDS011;23135;51.078;12.108;2023-01-28T03:43:24;3.63;;;1.17;;
37241;SDS011;23135;51.078;12.108;2023-01-28T03:45:50;5.43;;;1.20;;
37241;SDS011;23135;51.078;12.108;2023-01-28T03:48:19;6.32;;;0.82;;
37241;SDS011;23135;51.078;12.108;2023-01-28T03:50:48;6.03;;;1.10;;
37241;SDS011;23135;51.078;12.108;2023-01-28T03:53:15;5.40;;;0.88;;
37241;SDS011;23135;51.078;12.108;2023-01-28T03:55:41;4.68;;;1.67;;
37241;SDS011;23135;51.078;12.108;2023-01-28T03:58:07;4.43;;;1.63;;
37241;SDS011;23135;51.078;12.108;2023-01-28T04:00:34;4.53;;;1.95;;
37241;SDS011;23135;51.078;12.108;2023-01-28T04:03:06;2.80;;;1.58;;
37241;SDS011;23135;51.078;12.108;2023-01-28T04:05:45;5.45;;;2.67;;
37241;SDS011;23135;51.078;12.108;2023-01-28T04:08:21;5.68;;;2.88;;
37241;SDS011;23135;51.078;12.108;2023-01-28T04:10:46;6.32;;;2.75;;
37241;SDS011;23135;51.078;12.108;2023-01-28T04:13:12;6.28;;;2.88;;
37241;SDS011;23135;51.078;12.108;2023-01-28T04:15:37;8.45;;;3.35;;
37241;SDS011;23135;51.078;12.108;2023-01-28T04:18:03;10.52;;;3.95;;
37241;SDS011;23135;51.078;12.108;2023-01-28T04:20:29;9.02;;;3.25;;
37241;SDS011;23135;51.078;12.108;2023-01-28T04:22:54;8.18;;;3.83;;
37241;SDS011;23135;51.078;12.108;2023-01-28T04:25:20;9.25;;;3.47;;
37241;SDS011;23135;51.078;12.108;2023-01-28T04:27:45;8.40;;;3.05;;
37241;SDS011;23135;51.078;12.108;2023-01-28T04:30:11;8.27;;;2.97;;
37241;SDS011;23135;51.078;12.108;2023-01-28T04:32:37;9.18;;;4.00;;
37241;SDS011;23135;51.078;12.108;2023-01-28T04:35:02;11.80;;;4.20;;
37241;SDS011;23135;51.078;12.108;2023-01-28T04:37:28;10.82;;;3.78;;
37241;SDS011;23135;51.078;12.108;2023-01-28T04:39:53;12.02;;;4.25;;
37241;SDS011;23135;51.078;12.108;2023-01-28T04:42:19;12.27;;;3.65;;
37241;SDS011;23135;51.078;12.108;2023-01-28T04:44:45;9.73;;;4.28;;
37241;SDS011;23135;51.078;12.108;2023-01-28T04:47:10;7.65;;;4.07;;
37241;SDS011;23135;51.078;12.108;2023-01-28T04:49:36;10.98;;;3.55;;
37241;SDS011;23135;51.078;12.108;2023-01-28T04:52:01;7.40;;;3.40;;
37241;SDS011;23135;51.078;12.108;2023-01-28T04:54:27;9.13;;;3.78;;
37241;SDS011;23135;51.078;12.108;2023-01-28T04:56:52;6.57;;;4.50;;
37241;SDS011;23135;51.078;12.108;2023-01-28T04:59:18;7.03;;;3.72;;
37241;SDS011;23135;51.078;12.108;2023-01-28T05:01:44;12.88;;;3.70;;
37241;SDS011;23135;51.078;12.108;2023-01-28T05:04:10;11.25;;;3.47;;
37241;SDS011;23135;51.078;12.108;2023-01-28T05:06:36;10.02;;;3.55;;
37241;SDS011;23135;51.078;12.108;2023-01-28T05:09:01;6.88;;;4.22;;
37241;SDS011;23135;51.078;12.108;2023-01-28T05:11:27;13.40;;;4.80;;
37241;SDS011;23135;51.078;12.108;2023-01-28T05:13:53;13.10;;;3.58;;
37241;SDS011;23135;51.078;12.108;2023-01-28T05:16:19;8.98;;;3.53;;
37241;SDS011;23135;51.078;12.108;2023-01-28T05:18:44;6.90;;;3.63;;
37241;SDS011;23135;51.078;12.108;2023-01-28T05:21:12;7.95;;;3.80;;
37241;SDS011;23135;51.078;12.108;2023-01-28T05:23:38;9.27;;;4.30;;
37241;SDS011;23135;51.078;12.108;2023-01-28T05:26:03;10.43;;;4.25;;
37241;SDS011;23135;51.078;12.108;2023-01-28T05:28:29;8.23;;;4.03;;
37241;SDS011;23135;51.078;12.108;2023-01-28T05:30:55;9.95;;;3.67;;
37241;SDS011;23135;51.078;12.108;2023-01-28T05:33:20;9.95;;;4.18;;
37241;SDS011;23135;51.078;12.108;2023-01-28T05:35:46;12.68;;;5.63;;
37241;SDS011;23135;51.078;12.108;2023-01-28T05:38:13;10.52;;;5.22;;
37241;SDS011;23135;51.078;12.108;2023-01-28T05:40:39;8.02;;;4.10;;
37241;SDS011;23135;51.078;12.108;2023-01-28T05:43:04;8.85;;;3.92;;
37241;SDS011;23135;51.078;12.108;2023-01-28T05:45:31;10.02;;;3.85;;
37241;SDS011;23135;51.078;12.108;2023-01-28T05:47:56;7.38;;;3.58;;
37241;SDS011;23135;51.078;12.108;2023-01-28T05:50:22;8.75;;;4.47;;
37241;SDS011;23135;51.078;12.108;2023-01-28T05:52:48;8.05;;;4.13;;
37241;SDS011;23135;51.078;12.108;2023-01-28T05:55:13;12.38;;;4.18;;
37241;SDS011;23135;51.078;12.108;2023-01-28T05:57:39;9.70;;;5.25;;
37241;SDS011;23135;51.078;12.108;2023-01-28T06:00:05;7.10;;;4.00;;
37241;SDS011;23135;51.078;12.108;2023-01-28T06:02:31;7.70;;;3.22;;
37241;SDS011;23135;51.078;12.108;2023-01-28T06:04:56;8.20;;;2.97;;
37241;SDS011;23135;51.078;12.108;2023-01-28T06:07:22;5.00;;;2.67;;
37241;SDS011;23135;51.078;12.108;2023-01-28T06:09:48;4.25;;;2.30;;
37241;SDS011;23135;51.078;12.108;2023-01-28T06:12:13;10.05;;;3.10;;
37241;SDS011;23135;51.078;12.108;2023-01-28T06:14:39;8.23;;;2.72;;
37241;SDS011;23135;51.078;12.108;2023-01-28T06:17:05;3.10;;;1.90;;
37241;SDS011;23135;51.078;12.108;2023-01-28T06:19:31;6.00;;;0.95;;
37241;SDS011;23135;51.078;12.108;2023-01-28T06:21:57;5.47;;;2.17;;
37241;SDS011;23135;51.078;12.108;2023-01-28T06:24:22;4.15;;;1.58;;
37241;SDS011;23135;51.078;12.108;2023-01-28T06:26:48;11.93;;;2.15;;
37241;SDS011;23135;51.078;12.108;2023-01-28T06:29:13;4.65;;;1.52;;
37241;SDS011;23135;51.078;12.108;2023-01-28T06:31:39;8.70;;;2.58;;
37241;SDS011;23135;51.078;12.108;2023-01-28T06:34:05;3.50;;;1.17;;
37241;SDS011;23135;51.078;12.108;2023-01-28T06:36:30;3.55;;;1.23;;
37241;SDS011;23135;51.078;12.108;2023-01-28T06:38:56;3.10;;;1.17;;
37241;SDS011;23135;51.078;12.108;2023-01-28T06:41:22;5.13;;;0.70;;
37241;SDS011;23135;51.078;12.108;2023-01-28T06:43:48;1.45;;;0.50;;
37241;SDS011;23135;51.078;12.108;2023-01-28T06:46:13;3.67;;;0.70;;
37241;SDS011;23135;51.078;12.108;2023-01-28T06:48:39;3.22;;;1.48;;
37241;SDS011;23135;51.078;12.108;2023-01-28T06:51:05;3.42;;;0.80;;
37241;SDS011;23135;51.078;12.108;2023-01-28T06:53:30;3.42;;;0.98;;
37241;SDS011;23135;51.078;12.108;2023-01-28T06:55:56;4.13;;;0.65;;
37241;SDS011;23135;51.078;12.108;2023-01-28T06:58:21;2.78;;;0.60;;
37241;SDS011;23135;51.078;12.108;2023-01-28T07:00:47;6.53;;;0.98;;
37241;SDS011;23135;51.078;12.108;2023-01-28T07:03:13;2.00;;;0.75;;
37241;SDS011;23135;51.078;12.108;2023-01-28T07:05:38;8.45;;;0.75;;
37241;SDS011;23135;51.078;12.108;2023-01-28T07:08:04;3.33;;;1.27;;
37241;SDS011;23135;51.078;12.108;2023-01-28T07:10:30;3.78;;;0.57;;
37241;SDS011;23135;51.078;12.108;2023-01-28T07:12:56;5.03;;;0.70;;
37241;SDS011;23135;51.078;12.108;2023-01-28T07:15:21;2.72;;;1.67;;
37241;SDS011;23135;51.078;12.108;2023-01-28T07:17:47;22.48;;;9.65;;
37241;SDS011;23135;51.078;12.108;2023-01-28T07:20:13;22.48;;;7.60;;
37241;SDS011;23135;51.078;12.108;2023-01-28T07:22:40;60.25;;;23.77;;
37241;SDS011;23135;51.078;12.108;2023-01-28T07:25:07;10.95;;;3.95;;
37241;SDS011;23135;51.078;12.108;2023-01-28T07:27:33;3.83;;;1.02;;
37241;SDS011;23135;51.078;12.108;2023-01-28T07:29:59;3.30;;;2.80;;
37241;SDS011;23135;51.078;12.108;2023-01-28T07:32:24;2.25;;;0.95;;
37241;SDS011;23135;51.078;12.108;2023-01-28T07:34:51;6.05;;;1.58;;
37241;SDS011;23135;51.078;12.108;2023-01-28T07:37:20;2.58;;;1.70;;
37241;SDS011;23135;51.078;12.108;2023-01-28T07:39:45;46.83;;;19.67;;
37241;SDS011;23135;51.078;12.108;2023-01-28T07:42:11;57.20;;;22.33;;
37241;SDS011;23135;51.078;12.108;2023-01-28T07:44:36;25.02;;;12.02;;
37241;SDS011;23135;51.078;12.108;2023-01-28T07:47:03;3.90;;;2.13;;
37241;SDS011;23135;51.078;12.108;2023-01-28T07:49:29;5.63;;;2.55;;
37241;SDS011;23135;51.078;12.108;2023-01-28T07:51:55;4.70;;;1.63;;
37241;SDS011;23135;51.078;12.108;2023-01-28T07:54:21;5.18;;;2.47;;
37241;SDS011;23135;51.078;12.108;2023-01-28T07:56:46;3.15;;;0.75;;
37241;SDS011;23135;51.078;12.108;2023-01-28T07:59:12;6.78;;;1.27;;
37241;SDS011;23135;51.078;12.108;2023-01-28T08:01:37;5.88;;;1.10;;
37241;SDS011;23135;51.078;12.108;2023-01-28T08:04:03;5.43;;;1.08;;
37241;SDS011;23135;51.078;12.108;2023-01-28T08:06:29;11.13;;;1.05;;
37241;SDS011;23135;51.078;12.108;2023-01-28T08:08:54;3.85;;;1.05;;
37241;SDS011;23135;51.078;12.108;2023-01-28T08:11:20;1.00;;;0.40;;
37241;SDS011;23135;51.078;12.108;2023-01-28T08:13:47;5.53;;;0.82;;
37241;SDS011;23135;51.078;12.108;2023-01-28T08:16:13;2.08;;;0.25;;
37241;SDS011;23135;51.078;12.108;2023-01-28T08:18:38;3.08;;;0.25;;
37241;SDS011;23135;51.078;12.108;2023-01-28T08:21:04;3.45;;;0.73;;
37241;SDS011;23135;51.078;12.108;2023-01-28T08:23:29;2.42;;;0.50;;
37241;SDS011;23135;51.078;12.108;2023-01-28T08:25:58;5.63;;;1.55;;
37241;SDS011;23135;51.078;12.108;2023-01-28T08:28:24;1.60;;;0.40;;
37241;SDS011;23135;51.078;12.108;2023-01-28T08:30:50;6.60;;;0.82;;
37241;SDS011;23135;51.078;12.108;2023-01-28T08:33:17;1.88;;;0.17;;
37241;SDS011;23135;51.078;12.108;2023-01-28T08:35:43;9.02;;;1.08;;
37241;SDS011;23135;51.078;12.108;2023-01-28T08:38:10;2.33;;;0.50;;
37241;SDS011;23135;51.078;12.108;2023-01-28T08:40:37;2.20;;;0.40;;
37241;SDS011;23135;51.078;12.108;2023-01-28T08:43:03;2.45;;;0.52;;
37241;SDS011;23135;51.078;12.108;2023-01-28T08:45:29;2.97;;;0.50;;
37241;SDS011;23135;51.078;12.108;2023-01-28T08:50:27;1.67;;;0.20;;
37241;SDS011;23135;51.078;12.108;2023-01-28T08:52:57;4.32;;;0.77;;
37241;SDS011;23135;51.078;12.108;2023-01-28T08:55:25;1.88;;;0.35;;
37241;SDS011;23135;51.078;12.108;2023-01-28T08:57:51;4.35;;;1.00;;
37241;SDS011;23135;51.078;12.108;2023-01-28T09:00:18;3.55;;;0.52;;
37241;SDS011;23135;51.078;12.108;2023-01-28T09:02:44;2.67;;;0.60;;
37241;SDS011;23135;51.078;12.108;2023-01-28T09:05:10;3.72;;;1.08;;
37241;SDS011;23135;51.078;12.108;2023-01-28T09:07:36;4.38;;;0.20;;
37241;SDS011;23135;51.078;12.108;2023-01-28T09:10:03;5.47;;;0.47;;
37241;SDS011;23135;51.078;12.108;2023-01-28T09:12:30;9.52;;;0.20;;
37241;SDS011;23135;51.078;12.108;2023-01-28T09:14:56;2.90;;;0.13;;
37241;SDS011;23135;51.078;12.108;2023-01-28T09:17:22;0.43;;;0.22;;
37241;SDS011;23135;51.078;12.108;2023-01-28T09:19:48;0.90;;;0.13;;
37241;SDS011;23135;51.078;12.108;2023-01-28T09:22:14;2.80;;;0.30;;
37241;SDS011;23135;51.078;12.108;2023-01-28T09:24:44;2.70;;;0.30;;
37241;SDS011;23135;51.078;12.108;2023-01-28T09:27:09;0.95;;;0.20;;
37241;SDS011;23135;51.078;12.108;2023-01-28T09:29:35;3.78;;;0.80;;
37241;SDS011;23135;51.078;12.108;2023-01-28T09:32:02;4.15;;;0.57;;
37241;SDS011;23135;51.078;12.108;2023-01-28T09:34:28;3.78;;;0.10;;
37241;SDS011;23135;51.078;12.108;2023-01-28T09:36:53;0.77;;;0.10;;
37241;SDS011;23135;51.078;12.108;2023-01-28T09:39:19;1.45;;;0.20;;
37241;SDS011;23135;51.078;12.108;2023-01-28T09:41:48;1.92;;;0.20;;
37241;SDS011;23135;51.078;12.108;2023-01-28T09:49:55;3.10;;;0.45;;
37241;SDS011;23135;51.078;12.108;2023-01-28T09:52:25;2.28;;;0.75;;
37241;SDS011;23135;51.078;12.108;2023-01-28T09:54:51;4.35;;;0.68;;
37241;SDS011;23135;51.078;12.108;2023-01-28T09:57:39;1.80;;;0.32;;
37241;SDS011;23135;51.078;12.108;2023-01-28T10:00:16;0.65;;;0.10;;
37241;SDS011;23135;51.078;12.108;2023-01-28T10:03:05;1.05;;;0.22;;
37241;SDS011;23135;51.078;12.108;2023-01-28T10:05:46;2.75;;;0.73;;
37241;SDS011;23135;51.078;12.108;2023-01-28T10:14:03;1.33;;;0.10;;
37241;SDS011;23135;51.078;12.108;2023-01-28T10:17:05;5.63;;;0.63;;
37241;SDS011;23135;51.078;12.108;2023-01-28T10:19:42;2.88;;;0.30;;
37241;SDS011;23135;51.078;12.108;2023-01-28T10:22:15;3.42;;;0.20;;
37241;SDS011;23135;51.078;12.108;2023-01-28T10:24:45;4.63;;;0.85;;
37241;SDS011;23135;51.078;12.108;2023-01-28T10:27:20;5.88;;;0.93;;
37241;SDS011;23135;51.078;12.108;2023-01-28T10:29:47;1.65;;;0.40;;
37241;SDS011;23135;51.078;12.108;2023-01-28T10:32:16;3.38;;;0.30;;
37241;SDS011;23135;51.078;12.108;2023-01-28T10:34:46;2.45;;;0.90;;
37241;SDS011;23135;51.078;12.108;2023-01-28T10:37:12;2.90;;;0.50;;
37241;SDS011;23135;51.078;12.108;2023-01-28T10:39:40;3.60;;;0.77;;
37241;SDS011;23135;51.078;12.108;2023-01-28T10:42:17;3.13;;;0.63;;
37241;SDS011;23135;51.078;12.108;2023-01-28T10:44:52;3.53;;;0.40;;
37241;SDS011;23135;51.078;12.108;2023-01-28T10:47:32;3.45;;;0.95;;
37241;SDS011;23135;51.078;12.108;2023-01-28T10:50:03;1.27;;;0.57;;
37241;SDS011;23135;51.078;12.108;2023-01-28T10:52:29;4.22;;;0.63;;
37241;SDS011;23135;51.078;12.108;2023-01-28T10:55:03;3.45;;;0.25;;
37241;SDS011;23135;51.078;12.108;2023-01-28T10:57:31;2.88;;;0.40;;
37241;SDS011;23135;51.078;12.108;2023-01-28T11:00:08;1.33;;;0.50;;
37241;SDS011;23135;51.078;12.108;2023-01-28T11:02:36;1.25;;;0.20;;
37241;SDS011;23135;51.078;12.108;2023-01-28T11:05:03;3.35;;;0.30;;
37241;SDS011;23135;51.078;12.108;2023-01-28T11:07:29;3.13;;;0.70;;
37241;SDS011;23135;51.078;12.108;2023-01-28T11:09:54;5.88;;;0.52;;
37241;SDS011;23135;51.078;12.108;2023-01-28T11:12:21;2.88;;;0.40;;
37241;SDS011;23135;51.078;12.108;2023-01-28T11:14:55;4.20;;;0.30;;
37241;SDS011;23135;51.078;12.108;2023-01-28T11:17:27;2.17;;;1.00;;
37241;SDS011;23135;51.078;12.108;2023-01-28T11:20:00;1.23;;;0.40;;
37241;SDS011;23135;51.078;12.108;2023-01-28T11:22:41;4.32;;;0.47;;
37241;SDS011;23135;51.078;12.108;2023-01-28T11:25:15;3.85;;;1.23;;
37241;SDS011;23135;51.078;12.108;2023-01-28T11:27:50;2.05;;;0.95;;
37241;SDS011;23135;51.078;12.108;2023-01-28T11:30:21;4.65;;;0.90;;
37241;SDS011;23135;51.078;12.108;2023-01-28T11:32:53;4.10;;;0.88;;
37241;SDS011;23135;51.078;12.108;2023-01-28T11:35:27;1.88;;;0.75;;
37241;SDS011;23135;51.078;12.108;2023-01-28T11:37:55;3.08;;;0.55;;
37241;SDS011;23135;51.078;12.108;2023-01-28T11:40:24;3.97;;;0.73;;
37241;SDS011;23135;51.078;12.108;2023-01-28T11:42:51;3.65;;;0.43;;
37241;SDS011;23135;51.078;12.108;2023-01-28T11:51:23;1.08;;;0.80;;
37241;SDS011;23135;51.078;12.108;2023-01-28T11:59:03;2.25;;;0.50;;
37241;SDS011;23135;51.078;12.108;2023-01-28T12:07:23;4.07;;;0.40;;
37241;SDS011;23135;51.078;12.108;2023-01-28T12:29:51;2.13;;;1.02;;
37241;SDS011;23135;51.078;12.108;2023-01-28T12:38:18;2.65;;;0.38;;
37241;SDS011;23135;51.078;12.108;2023-01-28T12:41:03;7.35;;;1.15;;
37241;SDS011;23135;51.078;12.108;2023-01-28T12:43:41;5.53;;;0.52;;
37241;SDS011;23135;51.078;12.108;2023-01-28T12:46:22;4.90;;;1.33;;
37241;SDS011;23135;51.078;12.108;2023-01-28T12:55:15;3.33;;;0.55;;
37241;SDS011;23135;51.078;12.108;2023-01-28T12:57:55;9.80;;;1.33;;
37241;SDS011;23135;51.078;12.108;2023-01-28T13:00:30;1.92;;;0.65;;
37241;SDS011;23135;51.078;12.108;2023-01-28T13:03:01;2.40;;;0.60;;
37241;SDS011;23135;51.078;12.108;2023-01-28T13:05:34;7.32;;;1.33;;
37241;SDS011;23135;51.078;12.108;2023-01-28T13:08:21;6.65;;;1.75;;
37241;SDS011;23135;51.078;12.108;2023-01-28T13:10:49;6.15;;;3.05;;
37241;SDS011;23135;51.078;12.108;2023-01-28T13:13:38;9.80;;;2.25;;
37241;SDS011;23135;51.078;12.108;2023-01-28T13:16:04;8.27;;;3.20;;
37241;SDS011;23135;51.078;12.108;2023-01-28T13:18:33;8.07;;;2.67;;
37241;SDS011;23135;51.078;12.108;2023-01-28T13:23:50;9.80;;;3.03;;
37241;SDS011;23135;51.078;12.108;2023-01-28T13:26:41;6.38;;;2.72;;
37241;SDS011;23135;51.078;12.108;2023-01-28T13:29:16;9.30;;;3.53;;
37241;SDS011;23135;51.078;12.108;2023-01-28T13:31:43;7.65;;;2.97;;
37241;SDS011;23135;51.078;12.108;2023-01-28T13:34:25;6.22;;;2.25;;
37241;SDS011;23135;51.078;12.108;2023-01-28T13:40:00;13.25;;;3.05;;
37241;SDS011;23135;51.078;12.108;2023-01-28T13:42:33;17.10;;;3.25;;
37241;SDS011;23135;51.078;12.108;2023-01-28T13:47:42;12.68;;;2.45;;
37241;SDS011;23135;51.078;12.108;2023-01-28T13:50:14;8.93;;;1.77;;
37241;SDS011;23135;51.078;12.108;2023-01-28T13:52:44;8.48;;;2.38;;
37241;SDS011;23135;51.078;12.108;2023-01-28T13:55:34;6.65;;;2.25;;
37241;SDS011;23135;51.078;12.108;2023-01-28T14:05:59;6.63;;;2.45;;
37241;SDS011;23135;51.078;12.108;2023-01-28T14:19:36;4.22;;;1.27;;
37241;SDS011;23135;51.078;12.108;2023-01-28T14:22:06;4.00;;;1.17;;
37241;SDS011;23135;51.078;12.108;2023-01-28T14:24:39;1.35;;;0.63;;
37241;SDS011;23135;51.078;12.108;2023-01-28T14:30:06;3.65;;;1.40;;
37241;SDS011;23135;51.078;12.108;2023-01-28T14:32:32;8.88;;;3.83;;
37241;SDS011;23135;51.078;12.108;2023-01-28T14:35:00;5.93;;;2.63;;
37241;SDS011;23135;51.078;12.108;2023-01-28T14:37:32;7.18;;;1.80;;
37241;SDS011;23135;51.078;12.108;2023-01-28T14:42:32;21.60;;;8.20;;
37241;SDS011;23135;51.078;12.108;2023-01-28T14:58:47;6.93;;;2.20;;
37241;SDS011;23135;51.078;12.108;2023-01-28T15:01:24;6.05;;;2.22;;
37241;SDS011;23135;51.078;12.108;2023-01-28T15:03:52;6.22;;;2.20;;
37241;SDS011;23135;51.078;12.108;2023-01-28T15:06:20;5.40;;;2.08;;
37241;SDS011;23135;51.078;12.108;2023-01-28T15:08:50;6.10;;;2.42;;
37241;SDS011;23135;51.078;12.108;2023-01-28T15:11:18;5.60;;;1.77;;
37241;SDS011;23135;51.078;12.108;2023-01-28T15:13:48;4.32;;;2.75;;
37241;SDS011;23135;51.078;12.108;2023-01-28T15:16:22;5.88;;;2.78;;
37241;SDS011;23135;51.078;12.108;2023-01-28T15:18:52;3.75;;;1.60;;
37241;SDS011;23135;51.078;12.108;2023-01-28T15:21:20;8.65;;;1.85;;
37241;SDS011;23135;51.078;12.108;2023-01-28T15:23:48;6.57;;;2.20;;
37241;SDS011;23135;51.078;12.108;2023-01-28T15:26:19;7.22;;;3.35;;
37241;SDS011;23135;51.078;12.108;2023-01-28T15:28:52;3.42;;;1.95;;
37241;SDS011;23135;51.078;12.108;2023-01-28T15:31:25;2.70;;;1.58;;
37241;SDS011;23135;51.078;12.108;2023-01-28T15:36:47;2.78;;;1.92;;
37241;SDS011;23135;51.078;12.108;2023-01-28T15:39:14;4.90;;;1.35;;
37241;SDS011;23135;51.078;12.108;2023-01-28T15:41:42;4.32;;;1.73;;
37241;SDS011;23135;51.078;12.108;2023-01-28T15:44:18;7.72;;;2.03;;
37241;SDS011;23135;51.078;12.108;2023-01-28T15:46:58;9.95;;;2.15;;
37241;SDS011;23135;51.078;12.108;2023-01-28T15:49:26;2.97;;;2.13;;
37241;SDS011;23135;51.078;12.108;2023-01-28T15:51:55;4.45;;;1.85;;
37241;SDS011;23135;51.078;12.108;2023-01-28T15:54:21;4.43;;;2.20;;
37241;SDS011;23135;51.078;12.108;2023-01-28T15:56:47;7.03;;;1.92;;
37241;SDS011;23135;51.078;12.108;2023-01-28T16:01:41;11.05;;;3.53;;
37241;SDS011;23135;51.078;12.108;2023-01-28T16:04:20;8.45;;;3.80;;
37241;SDS011;23135;51.078;12.108;2023-01-28T16:06:53;10.45;;;5.65;;
37241;SDS011;23135;51.078;12.108;2023-01-28T16:12:02;11.02;;;4.65;;
37241;SDS011;23135;51.078;12.108;2023-01-28T16:14:30;8.63;;;4.07;;
37241;SDS011;23135;51.078;12.108;2023-01-28T16:17:03;8.48;;;3.35;;
37241;SDS011;23135;51.078;12.108;2023-01-28T16:19:35;8.48;;;4.22;;
37241;SDS011;23135;51.078;12.108;2023-01-28T16:22:04;8.23;;;5.30;;
37241;SDS011;23135;51.078;12.108;2023-01-28T16:24:32;9.18;;;4.28;;
37241;SDS011;23135;51.078;12.108;2023-01-28T16:29:31;10.23;;;4.85;;
37241;SDS011;23135;51.078;12.108;2023-01-28T16:31:57;9.82;;;4.50;;
37241;SDS011;23135;51.078;12.108;2023-01-28T16:34:27;9.63;;;5.07;;
37241;SDS011;23135;51.078;12.108;2023-01-28T16:36:55;6.78;;;4.63;;
37241;SDS011;23135;51.078;12.108;2023-01-28T16:39:25;6.05;;;3.72;;
37241;SDS011;23135;51.078;12.108;2023-01-28T16:41:51;10.85;;;4.38;;
37241;SDS011;23135;51.078;12.108;2023-01-28T16:44:17;9.73;;;3.67;;
37241;SDS011;23135;51.078;12.108;2023-01-28T16:46:43;7.65;;;3.55;;
37241;SDS011;23135;51.078;12.108;2023-01-28T16:49:09;4.88;;;3.38;;
37241;SDS011;23135;51.078;12.108;2023-01-28T16:51:35;7.13;;;2.53;;
37241;SDS011;23135;51.078;12.108;2023-01-28T16:54:02;7.63;;;4.03;;
37241;SDS011;23135;51.078;12.108;2023-01-28T16:56:28;11.55;;;3.88;;
37241;SDS011;23135;51.078;12.108;2023-01-28T16:58:55;11.20;;;3.47;;
37241;SDS011;23135;51.078;12.108;2023-01-28T17:01:21;5.03;;;3.53;;
37241;SDS011;23135;51.078;12.108;2023-01-28T17:03:46;4.35;;;2.30;;